sensor_id;sensor_type;location;lat;lon;timestamp;P1;durP1;ratioP1;P2;durP2;ratioP2
56037;SDS011;41907;47.848;9.000;2022-12-18T00:01:00;73.78;;;23.73;;
56037;SDS011;41907;47.848;9.000;2022-12-18T00:03:30;72.70;;;24.15;;
56037;SDS011;41907;47.848;9.000;2022-12-18T00:05:59;63.45;;;24.95;;
56037;SDS011;41907;47.848;9.000;2022-12-18T00:08:24;69.32;;;22.48;;
56037;SDS011;41907;47.848;9.000;2022-12-18T00:10:50;74.47;;;25.23;;
56037;SDS011;41907;47.848;9.000;2022-12-18T00:13:15;70.95;;;23.90;;
56037;SDS011;41907;47.848;9.000;2022-12-18T00:15:41;73.13;;;25.88;;
56037;SDS011;41907;47.848;9.000;2022-12-18T00:18:06;72.40;;;23.67;;
56037;SDS011;41907;47.848;9.000;2022-12-18T00:20:35;76.28;;;25.35;;
56037;SDS011;41907;47.848;9.000;2022-12-18T00:23:04;64.35;;;23.60;;
56037;SDS011;41907;47.848;9.000;2022-12-18T00:25:34;65.65;;;22.58;;
56037;SDS011;41907;47.848;9.000;2022-12-18T00:28:01;70.63;;;23.38;;
56037;SDS011;41907;47.848;9.000;2022-12-18T00:30:28;79.13;;;24.10;;
56037;SDS011;41907;47.848;9.000;2022-12-18T00:32:53;73.47;;;25.15;;
56037;SDS011;41907;47.848;9.000;2022-12-18T00:35:18;73.65;;;25.67;;
56037;SDS011;41907;47.848;9.000;2022-12-18T00:37:44;76.05;;;25.23;;
56037;SDS011;41907;47.848;9.000;2022-12-18T00:40:09;74.93;;;24.40;;
56037;SDS011;41907;47.848;9.000;2022-12-18T00:42:35;82.78;;;25.63;;
56037;SDS011;41907;47.848;9.000;2022-12-18T00:45:19;71.35;;;24.65;;
56037;SDS011;41907;47.848;9.000;2022-12-18T00:47:45;61.22;;;23.38;;
56037;SDS011;41907;47.848;9.000;2022-12-18T00:50:11;79.55;;;24.42;;
56037;SDS011;41907;47.848;9.000;2022-12-18T00:52:36;83.60;;;27.00;;
56037;SDS011;41907;47.848;9.000;2022-12-18T00:55:01;77.75;;;25.73;;
56037;SDS011;41907;47.848;9.000;2022-12-18T00:57:27;67.50;;;24.02;;
56037;SDS011;41907;47.848;9.000;2022-12-18T00:59:52;74.03;;;24.10;;
56037;SDS011;41907;47.848;9.000;2022-12-18T01:02:19;69.93;;;23.27;;
56037;SDS011;41907;47.848;9.000;2022-12-18T01:04:45;74.03;;;25.88;;
56037;SDS011;41907;47.848;9.000;2022-12-18T01:07:10;75.22;;;22.65;;
56037;SDS011;41907;47.848;9.000;2022-12-18T01:09:35;70.88;;;24.23;;
56037;SDS011;41907;47.848;9.000;2022-12-18T01:12:01;64.80;;;21.77;;
56037;SDS011;41907;47.848;9.000;2022-12-18T01:14:26;71.47;;;22.77;;
56037;SDS011;41907;47.848;9.000;2022-12-18T01:16:51;71.25;;;23.17;;
56037;SDS011;41907;47.848;9.000;2022-12-18T01:19:18;72.93;;;23.48;;
56037;SDS011;41907;47.848;9.000;2022-12-18T01:21:43;76.20;;;23.67;;
56037;SDS011;41907;47.848;9.000;2022-12-18T01:24:11;77.95;;;22.92;;
56037;SDS011;41907;47.848;9.000;2022-12-18T01:26:37;82.25;;;25.20;;
56037;SDS011;41907;47.848;9.000;2022-12-18T01:29:02;74.32;;;23.83;;
56037;SDS011;41907;47.848;9.000;2022-12-18T01:31:30;90.68;;;27.35;;
56037;SDS011;41907;47.848;9.000;2022-12-18T01:33:57;71.85;;;22.63;;
56037;SDS011;41907;47.848;9.000;2022-12-18T01:36:23;78.50;;;24.00;;
56037;SDS011;41907;47.848;9.000;2022-12-18T01:38:51;77.28;;;24.77;;
56037;SDS011;41907;47.848;9.000;2022-12-18T01:41:19;64.78;;;22.88;;
56037;SDS011;41907;47.848;9.000;2022-12-18T01:43:51;69.65;;;22.55;;
56037;SDS011;41907;47.848;9.000;2022-12-18T01:46:17;73.78;;;23.42;;
56037;SDS011;41907;47.848;9.000;2022-12-18T01:48:45;69.95;;;24.02;;
56037;SDS011;41907;47.848;9.000;2022-12-18T01:51:13;74.65;;;24.00;;
56037;SDS011;41907;47.848;9.000;2022-12-18T01:53:39;77.07;;;22.42;;
56037;SDS011;41907;47.848;9.000;2022-12-18T01:56:07;66.72;;;22.05;;
56037;SDS011;41907;47.848;9.000;2022-12-18T02:01:18;72.55;;;24.70;;
56037;SDS011;41907;47.848;9.000;2022-12-18T02:03:46;66.53;;;24.00;;
56037;SDS011;41907;47.848;9.000;2022-12-18T02:06:20;81.00;;;25.55;;
56037;SDS011;41907;47.848;9.000;2022-12-18T02:14:44;72.32;;;23.40;;
56037;SDS011;41907;47.848;9.000;2022-12-18T02:17:19;77.90;;;24.52;;
56037;SDS011;41907;47.848;9.000;2022-12-18T02:25:54;61.08;;;20.80;;
56037;SDS011;41907;47.848;9.000;2022-12-18T02:27:53;67.15;;;20.60;;
56037;SDS011;41907;47.848;9.000;2022-12-18T02:30:21;66.30;;;19.90;;
56037;SDS011;41907;47.848;9.000;2022-12-18T02:32:51;66.95;;;21.70;;
56037;SDS011;41907;47.848;9.000;2022-12-18T02:35:25;66.47;;;20.35;;
56037;SDS011;41907;47.848;9.000;2022-12-18T02:37:54;64.93;;;21.80;;
56037;SDS011;41907;47.848;9.000;2022-12-18T02:40:22;59.20;;;20.58;;
56037;SDS011;41907;47.848;9.000;2022-12-18T02:42:50;65.50;;;20.95;;
56037;SDS011;41907;47.848;9.000;2022-12-18T02:45:15;63.25;;;21.35;;
56037;SDS011;41907;47.848;9.000;2022-12-18T02:47:42;67.78;;;21.52;;
56037;SDS011;41907;47.848;9.000;2022-12-18T02:50:29;67.60;;;22.10;;
56037;SDS011;41907;47.848;9.000;2022-12-18T02:53:14;60.63;;;20.33;;
56037;SDS011;41907;47.848;9.000;2022-12-18T03:01:11;67.10;;;20.45;;
56037;SDS011;41907;47.848;9.000;2022-12-18T03:03:39;67.82;;;22.20;;
56037;SDS011;41907;47.848;9.000;2022-12-18T03:06:33;67.53;;;19.35;;
56037;SDS011;41907;47.848;9.000;2022-12-18T03:09:06;64.63;;;18.95;;
56037;SDS011;41907;47.848;9.000;2022-12-18T03:11:34;68.28;;;21.20;;
56037;SDS011;41907;47.848;9.000;2022-12-18T03:14:23;64.57;;;17.40;;
56037;SDS011;41907;47.848;9.000;2022-12-18T03:16:53;81.13;;;24.00;;
56037;SDS011;41907;47.848;9.000;2022-12-18T03:19:24;66.18;;;19.55;;
56037;SDS011;41907;47.848;9.000;2022-12-18T03:21:53;61.75;;;19.75;;
56037;SDS011;41907;47.848;9.000;2022-12-18T03:24:21;58.95;;;20.60;;
56037;SDS011;41907;47.848;9.000;2022-12-18T03:26:51;58.58;;;18.58;;
56037;SDS011;41907;47.848;9.000;2022-12-18T03:29:21;60.10;;;19.75;;
56037;SDS011;41907;47.848;9.000;2022-12-18T03:31:54;65.15;;;19.35;;
56037;SDS011;41907;47.848;9.000;2022-12-18T03:34:26;57.10;;;18.88;;
56037;SDS011;41907;47.848;9.000;2022-12-18T03:36:57;62.75;;;20.77;;
56037;SDS011;41907;47.848;9.000;2022-12-18T03:39:23;56.47;;;20.02;;
56037;SDS011;41907;47.848;9.000;2022-12-18T03:41:55;62.35;;;20.05;;
56037;SDS011;41907;47.848;9.000;2022-12-18T03:44:36;62.38;;;20.17;;
56037;SDS011;41907;47.848;9.000;2022-12-18T03:55:05;59.15;;;18.48;;
56037;SDS011;41907;47.848;9.000;2022-12-18T03:57:33;66.60;;;20.92;;
56037;SDS011;41907;47.848;9.000;2022-12-18T04:00:00;59.88;;;18.85;;
56037;SDS011;41907;47.848;9.000;2022-12-18T04:02:29;52.95;;;18.45;;
56037;SDS011;41907;47.848;9.000;2022-12-18T04:04:58;50.15;;;17.70;;
56037;SDS011;41907;47.848;9.000;2022-12-18T04:07:25;57.05;;;17.65;;
56037;SDS011;41907;47.848;9.000;2022-12-18T04:09:53;50.55;;;17.08;;
56037;SDS011;41907;47.848;9.000;2022-12-18T04:12:23;56.35;;;17.55;;
56037;SDS011;41907;47.848;9.000;2022-12-18T04:14:51;50.80;;;16.75;;
56037;SDS011;41907;47.848;9.000;2022-12-18T04:17:16;55.55;;;18.42;;
56037;SDS011;41907;47.848;9.000;2022-12-18T04:19:42;47.20;;;17.10;;
56037;SDS011;41907;47.848;9.000;2022-12-18T04:22:08;50.10;;;16.73;;
56037;SDS011;41907;47.848;9.000;2022-12-18T04:24:35;52.25;;;17.67;;
56037;SDS011;41907;47.848;9.000;2022-12-18T04:27:01;50.47;;;17.25;;
56037;SDS011;41907;47.848;9.000;2022-12-18T04:29:27;51.95;;;17.52;;
56037;SDS011;41907;47.848;9.000;2022-12-18T04:31:53;49.97;;;17.58;;
56037;SDS011;41907;47.848;9.000;2022-12-18T04:34:19;56.10;;;19.27;;
56037;SDS011;41907;47.848;9.000;2022-12-18T04:36:45;52.22;;;17.58;;
56037;SDS011;41907;47.848;9.000;2022-12-18T04:39:10;54.08;;;17.15;;
56037;SDS011;41907;47.848;9.000;2022-12-18T04:41:36;54.47;;;19.65;;
56037;SDS011;41907;47.848;9.000;2022-12-18T04:44:01;57.75;;;22.33;;
56037;SDS011;41907;47.848;9.000;2022-12-18T04:46:26;62.38;;;19.75;;
56037;SDS011;41907;47.848;9.000;2022-12-18T04:48:52;53.38;;;18.98;;
56037;SDS011;41907;47.848;9.000;2022-12-18T04:51:17;41.33;;;16.17;;
56037;SDS011;41907;47.848;9.000;2022-12-18T04:53:42;45.05;;;15.90;;
56037;SDS011;41907;47.848;9.000;2022-12-18T04:56:09;42.05;;;15.02;;
56037;SDS011;41907;47.848;9.000;2022-12-18T04:58:36;43.17;;;14.82;;
56037;SDS011;41907;47.848;9.000;2022-12-18T05:01:02;39.88;;;14.05;;
56037;SDS011;41907;47.848;9.000;2022-12-18T05:03:28;37.28;;;13.63;;
56037;SDS011;41907;47.848;9.000;2022-12-18T05:05:56;39.80;;;13.57;;
56037;SDS011;41907;47.848;9.000;2022-12-18T05:08:21;54.17;;;17.08;;
56037;SDS011;41907;47.848;9.000;2022-12-18T05:10:47;49.88;;;17.58;;
56037;SDS011;41907;47.848;9.000;2022-12-18T05:13:12;47.30;;;14.90;;
56037;SDS011;41907;47.848;9.000;2022-12-18T05:15:38;44.75;;;15.65;;
56037;SDS011;41907;47.848;9.000;2022-12-18T05:18:03;56.60;;;18.83;;
56037;SDS011;41907;47.848;9.000;2022-12-18T05:20:29;49.28;;;14.50;;
56037;SDS011;41907;47.848;9.000;2022-12-18T05:22:55;42.20;;;14.25;;
56037;SDS011;41907;47.848;9.000;2022-12-18T05:25:21;42.72;;;13.40;;
56037;SDS011;41907;47.848;9.000;2022-12-18T05:27:50;44.67;;;15.93;;
56037;SDS011;41907;47.848;9.000;2022-12-18T05:30:15;46.83;;;16.00;;
56037;SDS011;41907;47.848;9.000;2022-12-18T05:32:41;50.47;;;17.38;;
56037;SDS011;41907;47.848;9.000;2022-12-18T05:35:08;42.83;;;16.63;;
56037;SDS011;41907;47.848;9.000;2022-12-18T05:37:36;50.47;;;17.13;;
56037;SDS011;41907;47.848;9.000;2022-12-18T05:40:03;50.78;;;16.00;;
56037;SDS011;41907;47.848;9.000;2022-12-18T05:42:30;43.17;;;13.68;;
56037;SDS011;41907;47.848;9.000;2022-12-18T05:44:55;48.13;;;16.40;;
56037;SDS011;41907;47.848;9.000;2022-12-18T05:47:20;68.57;;;24.35;;
56037;SDS011;41907;47.848;9.000;2022-12-18T05:49:46;60.95;;;19.33;;
56037;SDS011;41907;47.848;9.000;2022-12-18T05:52:11;47.85;;;15.57;;
56037;SDS011;41907;47.848;9.000;2022-12-18T05:54:37;60.17;;;18.02;;
56037;SDS011;41907;47.848;9.000;2022-12-18T05:57:02;57.22;;;19.15;;
56037;SDS011;41907;47.848;9.000;2022-12-18T05:59:27;58.95;;;17.20;;
56037;SDS011;41907;47.848;9.000;2022-12-18T06:01:53;60.58;;;18.83;;
56037;SDS011;41907;47.848;9.000;2022-12-18T06:04:18;60.28;;;20.42;;
56037;SDS011;41907;47.848;9.000;2022-12-18T06:06:44;54.88;;;18.60;;
56037;SDS011;41907;47.848;9.000;2022-12-18T06:09:09;50.25;;;16.75;;
56037;SDS011;41907;47.848;9.000;2022-12-18T06:11:35;58.58;;;18.83;;
56037;SDS011;41907;47.848;9.000;2022-12-18T06:14:02;55.50;;;18.50;;
56037;SDS011;41907;47.848;9.000;2022-12-18T06:16:28;57.25;;;19.85;;
56037;SDS011;41907;47.848;9.000;2022-12-18T06:18:58;63.88;;;20.40;;
56037;SDS011;41907;47.848;9.000;2022-12-18T06:21:24;63.80;;;23.10;;
56037;SDS011;41907;47.848;9.000;2022-12-18T06:23:49;55.00;;;19.63;;
56037;SDS011;41907;47.848;9.000;2022-12-18T06:26:15;63.33;;;21.33;;
56037;SDS011;41907;47.848;9.000;2022-12-18T06:28:40;60.42;;;19.85;;
56037;SDS011;41907;47.848;9.000;2022-12-18T06:31:06;56.60;;;19.75;;
56037;SDS011;41907;47.848;9.000;2022-12-18T06:33:32;59.38;;;19.63;;
56037;SDS011;41907;47.848;9.000;2022-12-18T06:38:50;54.42;;;19.63;;
56037;SDS011;41907;47.848;9.000;2022-12-18T06:41:16;55.30;;;18.25;;
56037;SDS011;41907;47.848;9.000;2022-12-18T06:43:43;44.75;;;15.45;;
56037;SDS011;41907;47.848;9.000;2022-12-18T06:46:09;52.35;;;18.83;;
56037;SDS011;41907;47.848;9.000;2022-12-18T06:48:35;55.08;;;19.52;;
56037;SDS011;41907;47.848;9.000;2022-12-18T06:51:01;52.67;;;17.00;;
56037;SDS011;41907;47.848;9.000;2022-12-18T06:53:27;49.15;;;16.85;;
56037;SDS011;41907;47.848;9.000;2022-12-18T06:56:03;51.58;;;18.92;;
56037;SDS011;41907;47.848;9.000;2022-12-18T06:58:31;48.17;;;16.48;;
56037;SDS011;41907;47.848;9.000;2022-12-18T07:01:03;46.17;;;16.60;;
56037;SDS011;41907;47.848;9.000;2022-12-18T07:03:30;50.40;;;17.30;;
56037;SDS011;41907;47.848;9.000;2022-12-18T07:05:55;54.67;;;17.65;;
56037;SDS011;41907;47.848;9.000;2022-12-18T07:08:20;44.55;;;15.35;;
56037;SDS011;41907;47.848;9.000;2022-12-18T07:10:46;47.67;;;14.50;;
56037;SDS011;41907;47.848;9.000;2022-12-18T07:13:11;46.85;;;17.13;;
56037;SDS011;41907;47.848;9.000;2022-12-18T07:15:36;47.03;;;16.75;;
56037;SDS011;41907;47.848;9.000;2022-12-18T07:18:02;40.03;;;15.48;;
56037;SDS011;41907;47.848;9.000;2022-12-18T07:20:28;50.97;;;16.63;;
56037;SDS011;41907;47.848;9.000;2022-12-18T07:22:53;48.03;;;15.93;;
56037;SDS011;41907;47.848;9.000;2022-12-18T07:25:18;47.30;;;16.63;;
56037;SDS011;41907;47.848;9.000;2022-12-18T07:27:44;51.67;;;17.25;;
56037;SDS011;41907;47.848;9.000;2022-12-18T07:30:09;59.75;;;19.83;;
56037;SDS011;41907;47.848;9.000;2022-12-18T07:32:35;44.95;;;17.05;;
56037;SDS011;41907;47.848;9.000;2022-12-18T07:35:00;47.40;;;16.23;;
56037;SDS011;41907;47.848;9.000;2022-12-18T07:37:26;51.13;;;16.48;;
56037;SDS011;41907;47.848;9.000;2022-12-18T07:39:51;43.00;;;16.20;;
56037;SDS011;41907;47.848;9.000;2022-12-18T07:42:17;46.78;;;16.23;;
56037;SDS011;41907;47.848;9.000;2022-12-18T07:44:58;43.47;;;14.43;;
56037;SDS011;41907;47.848;9.000;2022-12-18T07:47:25;44.28;;;17.08;;
56037;SDS011;41907;47.848;9.000;2022-12-18T07:49:50;43.55;;;16.23;;
56037;SDS011;41907;47.848;9.000;2022-12-18T07:52:16;54.60;;;17.38;;
56037;SDS011;41907;47.848;9.000;2022-12-18T07:54:41;51.05;;;19.42;;
56037;SDS011;41907;47.848;9.000;2022-12-18T07:57:07;47.38;;;17.38;;
56037;SDS011;41907;47.848;9.000;2022-12-18T07:59:32;46.60;;;15.80;;
56037;SDS011;41907;47.848;9.000;2022-12-18T08:01:58;53.45;;;18.45;;
56037;SDS011;41907;47.848;9.000;2022-12-18T08:04:23;44.05;;;17.23;;
56037;SDS011;41907;47.848;9.000;2022-12-18T08:06:49;66.57;;;28.92;;
56037;SDS011;41907;47.848;9.000;2022-12-18T08:09:15;50.08;;;18.73;;
56037;SDS011;41907;47.848;9.000;2022-12-18T08:11:40;47.75;;;16.42;;
56037;SDS011;41907;47.848;9.000;2022-12-18T08:14:06;49.67;;;18.45;;
56037;SDS011;41907;47.848;9.000;2022-12-18T08:16:31;44.42;;;16.25;;
56037;SDS011;41907;47.848;9.000;2022-12-18T08:18:57;47.67;;;16.17;;
56037;SDS011;41907;47.848;9.000;2022-12-18T08:21:26;48.15;;;19.30;;
56037;SDS011;41907;47.848;9.000;2022-12-18T08:23:54;70.75;;;25.42;;
56037;SDS011;41907;47.848;9.000;2022-12-18T08:26:21;50.58;;;18.63;;
56037;SDS011;41907;47.848;9.000;2022-12-18T08:28:47;53.15;;;17.98;;
56037;SDS011;41907;47.848;9.000;2022-12-18T08:31:13;48.85;;;17.77;;
56037;SDS011;41907;47.848;9.000;2022-12-18T08:33:38;47.90;;;18.00;;
56037;SDS011;41907;47.848;9.000;2022-12-18T08:36:04;50.17;;;18.30;;
56037;SDS011;41907;47.848;9.000;2022-12-18T08:38:31;49.85;;;18.33;;
56037;SDS011;41907;47.848;9.000;2022-12-18T08:41:00;48.75;;;18.65;;
56037;SDS011;41907;47.848;9.000;2022-12-18T08:43:26;62.03;;;22.23;;
56037;SDS011;41907;47.848;9.000;2022-12-18T08:46:11;51.53;;;19.98;;
56037;SDS011;41907;47.848;9.000;2022-12-18T08:48:36;47.58;;;19.40;;
56037;SDS011;41907;47.848;9.000;2022-12-18T08:51:02;62.10;;;27.50;;
56037;SDS011;41907;47.848;9.000;2022-12-18T08:53:27;48.75;;;19.95;;
56037;SDS011;41907;47.848;9.000;2022-12-18T08:55:54;56.72;;;19.75;;
56037;SDS011;41907;47.848;9.000;2022-12-18T08:58:22;62.05;;;22.15;;
56037;SDS011;41907;47.848;9.000;2022-12-18T09:00:47;49.75;;;18.35;;
56037;SDS011;41907;47.848;9.000;2022-12-18T09:03:13;51.22;;;18.48;;
56037;SDS011;41907;47.848;9.000;2022-12-18T09:05:41;48.15;;;18.08;;
56037;SDS011;41907;47.848;9.000;2022-12-18T09:08:07;64.00;;;21.05;;
56037;SDS011;41907;47.848;9.000;2022-12-18T09:10:32;60.63;;;20.08;;
56037;SDS011;41907;47.848;9.000;2022-12-18T09:12:58;61.13;;;23.33;;
56037;SDS011;41907;47.848;9.000;2022-12-18T09:15:23;93.18;;;34.85;;
56037;SDS011;41907;47.848;9.000;2022-12-18T09:17:48;53.22;;;19.10;;
56037;SDS011;41907;47.848;9.000;2022-12-18T09:20:15;64.68;;;24.23;;
56037;SDS011;41907;47.848;9.000;2022-12-18T09:22:43;49.28;;;19.30;;
56037;SDS011;41907;47.848;9.000;2022-12-18T09:25:09;46.45;;;17.52;;
56037;SDS011;41907;47.848;9.000;2022-12-18T09:27:34;62.78;;;27.52;;
56037;SDS011;41907;47.848;9.000;2022-12-18T09:30:00;47.17;;;18.50;;
56037;SDS011;41907;47.848;9.000;2022-12-18T09:32:26;49.75;;;18.00;;
56037;SDS011;41907;47.848;9.000;2022-12-18T09:34:52;49.28;;;19.13;;
56037;SDS011;41907;47.848;9.000;2022-12-18T09:37:17;46.75;;;16.65;;
56037;SDS011;41907;47.848;9.000;2022-12-18T09:39:43;53.35;;;17.23;;
56037;SDS011;41907;47.848;9.000;2022-12-18T09:42:09;49.97;;;16.73;;
56037;SDS011;41907;47.848;9.000;2022-12-18T09:44:45;47.42;;;17.52;;
56037;SDS011;41907;47.848;9.000;2022-12-18T09:47:20;44.20;;;16.52;;
56037;SDS011;41907;47.848;9.000;2022-12-18T09:50:02;52.30;;;17.45;;
56037;SDS011;41907;47.848;9.000;2022-12-18T09:52:39;47.58;;;16.25;;
56037;SDS011;41907;47.848;9.000;2022-12-18T09:57:49;48.13;;;16.33;;
56037;SDS011;41907;47.848;9.000;2022-12-18T10:00:21;45.05;;;17.88;;
56037;SDS011;41907;47.848;9.000;2022-12-18T10:02:48;53.47;;;19.13;;
56037;SDS011;41907;47.848;9.000;2022-12-18T10:05:17;45.40;;;18.02;;
56037;SDS011;41907;47.848;9.000;2022-12-18T10:08:02;49.65;;;18.15;;
56037;SDS011;41907;47.848;9.000;2022-12-18T10:10:43;46.70;;;17.08;;
56037;SDS011;41907;47.848;9.000;2022-12-18T10:13:27;42.25;;;17.10;;
56037;SDS011;41907;47.848;9.000;2022-12-18T10:21:44;50.30;;;19.45;;
56037;SDS011;41907;47.848;9.000;2022-12-18T10:27:21;66.47;;;23.45;;
56037;SDS011;41907;47.848;9.000;2022-12-18T10:29:50;55.80;;;21.35;;
56037;SDS011;41907;47.848;9.000;2022-12-18T10:32:17;49.55;;;18.35;;
56037;SDS011;41907;47.848;9.000;2022-12-18T10:34:48;49.45;;;17.85;;
56037;SDS011;41907;47.848;9.000;2022-12-18T10:37:16;41.60;;;16.30;;
56037;SDS011;41907;47.848;9.000;2022-12-18T10:39:44;47.45;;;17.60;;
56037;SDS011;41907;47.848;9.000;2022-12-18T10:42:14;51.45;;;18.20;;
56037;SDS011;41907;47.848;9.000;2022-12-18T10:44:42;44.00;;;17.23;;
56037;SDS011;41907;47.848;9.000;2022-12-18T10:47:11;43.83;;;15.82;;
56037;SDS011;41907;47.848;9.000;2022-12-18T10:49:42;43.20;;;15.30;;
56037;SDS011;41907;47.848;9.000;2022-12-18T10:52:18;41.77;;;15.17;;
56037;SDS011;41907;47.848;9.000;2022-12-18T10:54:48;45.13;;;17.20;;
56037;SDS011;41907;47.848;9.000;2022-12-18T10:57:37;51.92;;;17.20;;
56037;SDS011;41907;47.848;9.000;2022-12-18T11:02:50;56.75;;;17.73;;
56037;SDS011;41907;47.848;9.000;2022-12-18T11:05:24;58.65;;;20.02;;
56037;SDS011;41907;47.848;9.000;2022-12-18T11:07:52;49.78;;;17.60;;
56037;SDS011;41907;47.848;9.000;2022-12-18T11:10:20;50.55;;;17.92;;
56037;SDS011;41907;47.848;9.000;2022-12-18T11:12:47;52.63;;;17.27;;
56037;SDS011;41907;47.848;9.000;2022-12-18T11:15:15;51.53;;;18.05;;
56037;SDS011;41907;47.848;9.000;2022-12-18T11:17:51;48.38;;;18.20;;
56037;SDS011;41907;47.848;9.000;2022-12-18T11:20:26;45.67;;;16.85;;
56037;SDS011;41907;47.848;9.000;2022-12-18T11:23:04;51.10;;;18.90;;
56037;SDS011;41907;47.848;9.000;2022-12-18T11:25:37;52.58;;;19.30;;
56037;SDS011;41907;47.848;9.000;2022-12-18T11:28:04;45.38;;;16.85;;
56037;SDS011;41907;47.848;9.000;2022-12-18T11:30:48;45.35;;;16.98;;
56037;SDS011;41907;47.848;9.000;2022-12-18T11:33:15;49.78;;;16.60;;
56037;SDS011;41907;47.848;9.000;2022-12-18T11:38:18;44.08;;;14.35;;
56037;SDS011;41907;47.848;9.000;2022-12-18T11:40:45;46.88;;;16.98;;
56037;SDS011;41907;47.848;9.000;2022-12-18T11:43:23;51.72;;;16.40;;
56037;SDS011;41907;47.848;9.000;2022-12-18T11:45:56;72.60;;;26.67;;
56037;SDS011;41907;47.848;9.000;2022-12-18T11:48:43;52.85;;;19.50;;
56037;SDS011;41907;47.848;9.000;2022-12-18T11:51:15;46.63;;;17.05;;
56037;SDS011;41907;47.848;9.000;2022-12-18T11:53:49;41.65;;;16.70;;
56037;SDS011;41907;47.848;9.000;2022-12-18T12:01:45;46.47;;;16.10;;
56037;SDS011;41907;47.848;9.000;2022-12-18T12:07:05;57.85;;;21.88;;
56037;SDS011;41907;47.848;9.000;2022-12-18T12:09:40;57.10;;;24.33;;
56037;SDS011;41907;47.848;9.000;2022-12-18T12:17:45;43.00;;;15.07;;
56037;SDS011;41907;47.848;9.000;2022-12-18T12:23:02;44.25;;;13.35;;
56037;SDS011;41907;47.848;9.000;2022-12-18T12:38:51;37.33;;;14.57;;
56037;SDS011;41907;47.848;9.000;2022-12-18T12:41:25;38.42;;;15.25;;
56037;SDS011;41907;47.848;9.000;2022-12-18T12:44:17;43.08;;;15.55;;
56037;SDS011;41907;47.848;9.000;2022-12-18T12:46:48;40.35;;;16.80;;
56037;SDS011;41907;47.848;9.000;2022-12-18T12:49:18;42.25;;;16.52;;
56037;SDS011;41907;47.848;9.000;2022-12-18T12:51:48;38.03;;;14.45;;
56037;SDS011;41907;47.848;9.000;2022-12-18T12:54:19;33.40;;;14.35;;
56037;SDS011;41907;47.848;9.000;2022-12-18T12:56:50;30.88;;;12.50;;
56037;SDS011;41907;47.848;9.000;2022-12-18T12:59:40;36.30;;;12.98;;
56037;SDS011;41907;47.848;9.000;2022-12-18T13:05:02;37.60;;;14.60;;
56037;SDS011;41907;47.848;9.000;2022-12-18T13:07:50;34.55;;;14.85;;
56037;SDS011;41907;47.848;9.000;2022-12-18T13:10:37;38.83;;;14.75;;
56037;SDS011;41907;47.848;9.000;2022-12-18T13:18:14;36.80;;;14.60;;
56037;SDS011;41907;47.848;9.000;2022-12-18T13:23:45;37.65;;;14.55;;
56037;SDS011;41907;47.848;9.000;2022-12-18T13:31:10;46.72;;;17.23;;
56037;SDS011;41907;47.848;9.000;2022-12-18T13:33:42;43.35;;;15.77;;
56037;SDS011;41907;47.848;9.000;2022-12-18T13:38:35;39.17;;;14.50;;
56037;SDS011;41907;47.848;9.000;2022-12-18T13:43:43;46.17;;;18.58;;
56037;SDS011;41907;47.848;9.000;2022-12-18T13:46:23;38.83;;;15.40;;
56037;SDS011;41907;47.848;9.000;2022-12-18T13:51:39;39.30;;;14.73;;
56037;SDS011;41907;47.848;9.000;2022-12-18T13:54:15;41.70;;;14.80;;
56037;SDS011;41907;47.848;9.000;2022-12-18T13:57:03;41.63;;;16.25;;
56037;SDS011;41907;47.848;9.000;2022-12-18T14:02:00;40.92;;;14.35;;
56037;SDS011;41907;47.848;9.000;2022-12-18T14:04:35;40.08;;;14.85;;
56037;SDS011;41907;47.848;9.000;2022-12-18T14:07:22;39.58;;;14.90;;
56037;SDS011;41907;47.848;9.000;2022-12-18T14:09:57;51.33;;;18.90;;
56037;SDS011;41907;47.848;9.000;2022-12-18T14:12:32;49.10;;;18.42;;
56037;SDS011;41907;47.848;9.000;2022-12-18T14:17:54;40.13;;;15.52;;
56037;SDS011;41907;47.848;9.000;2022-12-18T14:20:22;49.20;;;16.08;;
56037;SDS011;41907;47.848;9.000;2022-12-18T14:22:50;41.03;;;14.38;;
56037;SDS011;41907;47.848;9.000;2022-12-18T14:27:48;46.58;;;16.88;;
56037;SDS011;41907;47.848;9.000;2022-12-18T14:30:35;46.28;;;16.30;;
56037;SDS011;41907;47.848;9.000;2022-12-18T14:35:39;45.20;;;15.70;;
56037;SDS011;41907;47.848;9.000;2022-12-18T14:40:42;46.80;;;16.17;;
56037;SDS011;41907;47.848;9.000;2022-12-18T14:43:13;66.82;;;24.02;;
56037;SDS011;41907;47.848;9.000;2022-12-18T14:45:44;38.90;;;16.38;;
56037;SDS011;41907;47.848;9.000;2022-12-18T14:50:36;47.00;;;15.02;;
56037;SDS011;41907;47.848;9.000;2022-12-18T14:53:02;43.28;;;15.00;;
56037;SDS011;41907;47.848;9.000;2022-12-18T14:55:28;41.72;;;15.93;;
56037;SDS011;41907;47.848;9.000;2022-12-18T14:57:54;41.72;;;15.07;;
56037;SDS011;41907;47.848;9.000;2022-12-18T15:00:22;39.40;;;15.13;;
56037;SDS011;41907;47.848;9.000;2022-12-18T15:02:53;41.20;;;14.82;;
56037;SDS011;41907;47.848;9.000;2022-12-18T15:07:53;44.20;;;16.50;;
56037;SDS011;41907;47.848;9.000;2022-12-18T15:10:21;33.28;;;13.98;;
56037;SDS011;41907;47.848;9.000;2022-12-18T15:17:58;70.47;;;25.75;;
56037;SDS011;41907;47.848;9.000;2022-12-18T15:20:25;55.80;;;18.67;;
56037;SDS011;41907;47.848;9.000;2022-12-18T15:22:50;45.28;;;15.95;;
56037;SDS011;41907;47.848;9.000;2022-12-18T15:25:21;39.78;;;15.30;;
56037;SDS011;41907;47.848;9.000;2022-12-18T15:27:55;44.65;;;15.40;;
56037;SDS011;41907;47.848;9.000;2022-12-18T15:30:23;44.28;;;14.90;;
56037;SDS011;41907;47.848;9.000;2022-12-18T15:32:50;37.35;;;13.55;;
56037;SDS011;41907;47.848;9.000;2022-12-18T15:35:23;35.42;;;13.07;;
56037;SDS011;41907;47.848;9.000;2022-12-18T15:37:50;40.78;;;14.77;;
56037;SDS011;41907;47.848;9.000;2022-12-18T15:40:21;44.30;;;15.43;;
56037;SDS011;41907;47.848;9.000;2022-12-18T15:42:49;41.00;;;14.40;;
56037;SDS011;41907;47.848;9.000;2022-12-18T15:45:37;46.72;;;16.13;;
56037;SDS011;41907;47.848;9.000;2022-12-18T15:48:04;52.83;;;17.63;;
56037;SDS011;41907;47.848;9.000;2022-12-18T15:50:46;47.40;;;20.30;;
56037;SDS011;41907;47.848;9.000;2022-12-18T15:53:12;43.25;;;16.70;;
56037;SDS011;41907;47.848;9.000;2022-12-18T15:55:37;41.88;;;14.18;;
56037;SDS011;41907;47.848;9.000;2022-12-18T15:58:21;41.08;;;14.40;;
56037;SDS011;41907;47.848;9.000;2022-12-18T16:00:46;41.05;;;15.10;;
56037;SDS011;41907;47.848;9.000;2022-12-18T16:03:12;41.40;;;15.02;;
56037;SDS011;41907;47.848;9.000;2022-12-18T16:05:37;38.38;;;13.85;;
56037;SDS011;41907;47.848;9.000;2022-12-18T16:08:03;43.70;;;14.95;;
56037;SDS011;41907;47.848;9.000;2022-12-18T16:10:28;45.80;;;16.20;;
56037;SDS011;41907;47.848;9.000;2022-12-18T16:12:54;37.75;;;12.75;;
56037;SDS011;41907;47.848;9.000;2022-12-18T16:15:20;47.60;;;16.83;;
56037;SDS011;41907;47.848;9.000;2022-12-18T16:17:45;39.47;;;14.52;;
56037;SDS011;41907;47.848;9.000;2022-12-18T16:20:16;42.28;;;15.75;;
56037;SDS011;41907;47.848;9.000;2022-12-18T16:22:44;34.72;;;14.10;;
56037;SDS011;41907;47.848;9.000;2022-12-18T16:25:24;45.90;;;15.38;;
56037;SDS011;41907;47.848;9.000;2022-12-18T16:27:51;42.67;;;15.82;;
56037;SDS011;41907;47.848;9.000;2022-12-18T16:30:19;44.17;;;15.13;;
56037;SDS011;41907;47.848;9.000;2022-12-18T16:32:47;39.20;;;15.60;;
56037;SDS011;41907;47.848;9.000;2022-12-18T16:35:14;42.22;;;14.20;;